sensor_id;sensor_type;location;lat;lon;timestamp;P1;durP1;ratioP1;P2;durP2;ratioP2
71838;SDS011;59687;37.520;15.068;2022-12-19T00:01:27;18.75;;;8.77;;
71838;SDS011;59687;37.520;15.068;2022-12-19T00:04:00;15.32;;;8.50;;
71838;SDS011;59687;37.520;15.068;2022-12-19T00:06:31;14.80;;;8.47;;
71838;SDS011;59687;37.520;15.068;2022-12-19T00:08:59;15.43;;;8.63;;
71838;SDS011;59687;37.520;15.068;2022-12-19T00:11:27;16.30;;;8.77;;
71838;SDS011;59687;37.520;15.068;2022-12-19T00:13:55;16.30;;;8.77;;
71838;SDS011;59687;37.520;15.068;2022-12-19T00:16:24;15.07;;;9.15;;
71838;SDS011;59687;37.520;15.068;2022-12-19T00:18:53;14.97;;;8.60;;
71838;SDS011;59687;37.520;15.068;2022-12-19T00:21:25;15.15;;;8.35;;
71838;SDS011;59687;37.520;15.068;2022-12-19T00:23:55;18.95;;;9.98;;
71838;SDS011;59687;37.520;15.068;2022-12-19T00:26:24;14.52;;;8.35;;
71838;SDS011;59687;37.520;15.068;2022-12-19T00:28:54;15.70;;;9.15;;
71838;SDS011;59687;37.520;15.068;2022-12-19T00:31:24;15.77;;;9.23;;
71838;SDS011;59687;37.520;15.068;2022-12-19T00:33:54;17.90;;;8.55;;
71838;SDS011;59687;37.520;15.068;2022-12-19T00:36:31;18.00;;;8.52;;
71838;SDS011;59687;37.520;15.068;2022-12-19T00:38:59;17.08;;;8.43;;
71838;SDS011;59687;37.520;15.068;2022-12-19T00:41:31;15.05;;;8.35;;
71838;SDS011;59687;37.520;15.068;2022-12-19T00:44:01;14.27;;;8.70;;
71838;SDS011;59687;37.520;15.068;2022-12-19T00:46:30;18.63;;;8.68;;
71838;SDS011;59687;37.520;15.068;2022-12-19T00:49:00;17.05;;;8.55;;
71838;SDS011;59687;37.520;15.068;2022-12-19T00:51:29;15.55;;;8.55;;
71838;SDS011;59687;37.520;15.068;2022-12-19T00:53:58;15.23;;;8.98;;
71838;SDS011;59687;37.520;15.068;2022-12-19T00:56:29;17.73;;;8.63;;
71838;SDS011;59687;37.520;15.068;2022-12-19T00:58:58;16.08;;;8.30;;
71838;SDS011;59687;37.520;15.068;2022-12-19T01:01:28;15.18;;;8.50;;
71838;SDS011;59687;37.520;15.068;2022-12-19T01:03:58;16.20;;;8.55;;
71838;SDS011;59687;37.520;15.068;2022-12-19T01:06:49;19.98;;;8.95;;
71838;SDS011;59687;37.520;15.068;2022-12-19T01:09:17;18.73;;;8.10;;
71838;SDS011;59687;37.520;15.068;2022-12-19T01:11:44;20.55;;;9.05;;
71838;SDS011;59687;37.520;15.068;2022-12-19T01:14:30;16.38;;;8.60;;
71838;SDS011;59687;37.520;15.068;2022-12-19T01:16:59;15.93;;;8.85;;
71838;SDS011;59687;37.520;15.068;2022-12-19T01:19:26;15.02;;;8.32;;
71838;SDS011;59687;37.520;15.068;2022-12-19T01:21:53;16.67;;;7.60;;
71838;SDS011;59687;37.520;15.068;2022-12-19T01:24:20;18.98;;;8.65;;
71838;SDS011;59687;37.520;15.068;2022-12-19T01:26:48;15.15;;;7.45;;
71838;SDS011;59687;37.520;15.068;2022-12-19T01:29:15;15.18;;;7.90;;
71838;SDS011;59687;37.520;15.068;2022-12-19T01:31:43;13.77;;;7.63;;
71838;SDS011;59687;37.520;15.068;2022-12-19T01:34:15;14.97;;;8.40;;
71838;SDS011;59687;37.520;15.068;2022-12-19T01:36:42;16.80;;;8.38;;
71838;SDS011;59687;37.520;15.068;2022-12-19T01:39:13;14.45;;;7.30;;
71838;SDS011;59687;37.520;15.068;2022-12-19T01:41:41;14.95;;;7.82;;
71838;SDS011;59687;37.520;15.068;2022-12-19T01:44:08;19.35;;;8.13;;
71838;SDS011;59687;37.520;15.068;2022-12-19T01:49:27;15.02;;;8.00;;
71838;SDS011;59687;37.520;15.068;2022-12-19T01:52:01;13.15;;;6.88;;
71838;SDS011;59687;37.520;15.068;2022-12-19T01:54:32;15.77;;;7.80;;
71838;SDS011;59687;37.520;15.068;2022-12-19T01:57:04;15.07;;;8.25;;
71838;SDS011;59687;37.520;15.068;2022-12-19T01:59:41;16.33;;;8.30;;
71838;SDS011;59687;37.520;15.068;2022-12-19T02:02:34;15.30;;;7.45;;
71838;SDS011;59687;37.520;15.068;2022-12-19T02:05:01;15.25;;;8.07;;
71838;SDS011;59687;37.520;15.068;2022-12-19T02:07:31;15.50;;;7.90;;
71838;SDS011;59687;37.520;15.068;2022-12-19T02:10:01;16.35;;;7.60;;
71838;SDS011;59687;37.520;15.068;2022-12-19T02:12:34;13.73;;;7.30;;
71838;SDS011;59687;37.520;15.068;2022-12-19T02:15:13;14.10;;;7.57;;
71838;SDS011;59687;37.520;15.068;2022-12-19T02:32:39;14.30;;;7.53;;
71838;SDS011;59687;37.520;15.068;2022-12-19T02:38:10;14.80;;;7.72;;
71838;SDS011;59687;37.520;15.068;2022-12-19T02:40:44;11.90;;;6.47;;
71838;SDS011;59687;37.520;15.068;2022-12-19T02:43:31;11.10;;;6.38;;
71838;SDS011;59687;37.520;15.068;2022-12-19T02:46:02;16.60;;;6.75;;
71838;SDS011;59687;37.520;15.068;2022-12-19T02:48:35;15.38;;;7.60;;
71838;SDS011;59687;37.520;15.068;2022-12-19T02:51:03;10.63;;;5.95;;
71838;SDS011;59687;37.520;15.068;2022-12-19T02:53:31;10.90;;;5.90;;
71838;SDS011;59687;37.520;15.068;2022-12-19T02:58:35;11.18;;;6.00;;
71838;SDS011;59687;37.520;15.068;2022-12-19T03:04:15;11.65;;;5.72;;
71838;SDS011;59687;37.520;15.068;2022-12-19T03:06:52;11.03;;;5.80;;
71838;SDS011;59687;37.520;15.068;2022-12-19T03:09:34;12.93;;;6.90;;
71838;SDS011;59687;37.520;15.068;2022-12-19T03:12:22;14.38;;;5.95;;
71838;SDS011;59687;37.520;15.068;2022-12-19T03:14:55;14.32;;;6.07;;
71838;SDS011;59687;37.520;15.068;2022-12-19T03:17:24;12.80;;;6.40;;
71838;SDS011;59687;37.520;15.068;2022-12-19T03:19:52;9.90;;;5.83;;
71838;SDS011;59687;37.520;15.068;2022-12-19T03:22:19;11.13;;;5.80;;
71838;SDS011;59687;37.520;15.068;2022-12-19T03:24:48;11.73;;;6.47;;
71838;SDS011;59687;37.520;15.068;2022-12-19T03:27:18;13.60;;;6.15;;
71838;SDS011;59687;37.520;15.068;2022-12-19T03:29:55;11.88;;;6.05;;
71838;SDS011;59687;37.520;15.068;2022-12-19T03:32:27;12.57;;;5.73;;
71838;SDS011;59687;37.520;15.068;2022-12-19T03:35:04;11.98;;;5.82;;
71838;SDS011;59687;37.520;15.068;2022-12-19T03:37:37;10.68;;;5.32;;
71838;SDS011;59687;37.520;15.068;2022-12-19T03:40:08;10.00;;;5.97;;
71838;SDS011;59687;37.520;15.068;2022-12-19T03:42:42;10.40;;;5.10;;
71838;SDS011;59687;37.520;15.068;2022-12-19T03:45:48;12.63;;;5.77;;
71838;SDS011;59687;37.520;15.068;2022-12-19T03:56:27;11.73;;;5.70;;
71838;SDS011;59687;37.520;15.068;2022-12-19T03:59:38;9.73;;;5.60;;
71838;SDS011;59687;37.520;15.068;2022-12-19T04:02:12;13.57;;;6.13;;
71838;SDS011;59687;37.520;15.068;2022-12-19T04:04:41;10.63;;;5.10;;
71838;SDS011;59687;37.520;15.068;2022-12-19T04:07:11;12.13;;;5.38;;
71838;SDS011;59687;37.520;15.068;2022-12-19T04:09:40;11.25;;;5.90;;
71838;SDS011;59687;37.520;15.068;2022-12-19T04:12:13;11.07;;;5.13;;
71838;SDS011;59687;37.520;15.068;2022-12-19T04:14:43;12.18;;;5.97;;
71838;SDS011;59687;37.520;15.068;2022-12-19T04:20:08;12.32;;;5.20;;
71838;SDS011;59687;37.520;15.068;2022-12-19T04:22:42;10.38;;;5.40;;
71838;SDS011;59687;37.520;15.068;2022-12-19T04:25:27;10.33;;;5.23;;
71838;SDS011;59687;37.520;15.068;2022-12-19T04:27:59;12.07;;;5.40;;
71838;SDS011;59687;37.520;15.068;2022-12-19T04:30:38;10.95;;;5.57;;
71838;SDS011;59687;37.520;15.068;2022-12-19T04:33:06;11.85;;;5.47;;
71838;SDS011;59687;37.520;15.068;2022-12-19T04:35:33;11.77;;;5.55;;
71838;SDS011;59687;37.520;15.068;2022-12-19T04:38:00;12.83;;;5.33;;
71838;SDS011;59687;37.520;15.068;2022-12-19T04:40:27;11.48;;;5.20;;
71838;SDS011;59687;37.520;15.068;2022-12-19T04:42:54;9.68;;;4.88;;
71838;SDS011;59687;37.520;15.068;2022-12-19T04:45:22;9.93;;;5.32;;
71838;SDS011;59687;37.520;15.068;2022-12-19T04:47:49;9.50;;;5.13;;
71838;SDS011;59687;37.520;15.068;2022-12-19T04:50:16;8.67;;;4.83;;
71838;SDS011;59687;37.520;15.068;2022-12-19T04:52:43;14.13;;;6.03;;
71838;SDS011;59687;37.520;15.068;2022-12-19T04:55:10;10.43;;;5.20;;
71838;SDS011;59687;37.520;15.068;2022-12-19T04:57:37;11.95;;;6.05;;
71838;SDS011;59687;37.520;15.068;2022-12-19T05:00:03;10.98;;;5.65;;
71838;SDS011;59687;37.520;15.068;2022-12-19T05:02:33;11.33;;;5.53;;
71838;SDS011;59687;37.520;15.068;2022-12-19T05:05:00;11.70;;;6.20;;
71838;SDS011;59687;37.520;15.068;2022-12-19T05:07:27;12.48;;;6.03;;
71838;SDS011;59687;37.520;15.068;2022-12-19T05:09:54;10.35;;;5.43;;
71838;SDS011;59687;37.520;15.068;2022-12-19T05:12:20;12.50;;;6.20;;
71838;SDS011;59687;37.520;15.068;2022-12-19T05:14:47;12.03;;;6.30;;
71838;SDS011;59687;37.520;15.068;2022-12-19T05:17:14;10.95;;;5.65;;
71838;SDS011;59687;37.520;15.068;2022-12-19T05:19:42;11.68;;;7.00;;
71838;SDS011;59687;37.520;15.068;2022-12-19T05:22:10;12.00;;;6.50;;
71838;SDS011;59687;37.520;15.068;2022-12-19T05:24:38;10.00;;;5.60;;
71838;SDS011;59687;37.520;15.068;2022-12-19T05:27:05;10.53;;;5.50;;
71838;SDS011;59687;37.520;15.068;2022-12-19T05:29:34;10.70;;;5.38;;
71838;SDS011;59687;37.520;15.068;2022-12-19T05:32:01;12.20;;;5.30;;
71838;SDS011;59687;37.520;15.068;2022-12-19T05:34:28;11.95;;;6.07;;
71838;SDS011;59687;37.520;15.068;2022-12-19T05:36:55;12.68;;;5.40;;
71838;SDS011;59687;37.520;15.068;2022-12-19T05:39:21;12.47;;;5.73;;
71838;SDS011;59687;37.520;15.068;2022-12-19T05:41:48;10.18;;;5.15;;
71838;SDS011;59687;37.520;15.068;2022-12-19T05:44:15;9.48;;;5.38;;
71838;SDS011;59687;37.520;15.068;2022-12-19T05:46:42;9.70;;;5.70;;
71838;SDS011;59687;37.520;15.068;2022-12-19T05:49:11;10.00;;;6.05;;
71838;SDS011;59687;37.520;15.068;2022-12-19T05:51:39;13.37;;;6.60;;
71838;SDS011;59687;37.520;15.068;2022-12-19T05:54:06;12.80;;;7.43;;
71838;SDS011;59687;37.520;15.068;2022-12-19T05:56:33;13.55;;;6.32;;
71838;SDS011;59687;37.520;15.068;2022-12-19T05:59:01;14.27;;;7.05;;
71838;SDS011;59687;37.520;15.068;2022-12-19T06:01:28;13.48;;;7.28;;
71838;SDS011;59687;37.520;15.068;2022-12-19T06:03:55;13.13;;;7.30;;
71838;SDS011;59687;37.520;15.068;2022-12-19T06:06:23;15.18;;;6.78;;
71838;SDS011;59687;37.520;15.068;2022-12-19T06:08:53;15.85;;;6.82;;
71838;SDS011;59687;37.520;15.068;2022-12-19T06:11:21;15.00;;;6.32;;
71838;SDS011;59687;37.520;15.068;2022-12-19T06:13:49;11.82;;;6.22;;
71838;SDS011;59687;37.520;15.068;2022-12-19T06:16:17;15.43;;;7.13;;
71838;SDS011;59687;37.520;15.068;2022-12-19T06:18:45;12.57;;;6.93;;
71838;SDS011;59687;37.520;15.068;2022-12-19T06:21:14;15.18;;;6.95;;
71838;SDS011;59687;37.520;15.068;2022-12-19T06:23:43;17.95;;;8.30;;
71838;SDS011;59687;37.520;15.068;2022-12-19T06:26:17;12.82;;;7.35;;
71838;SDS011;59687;37.520;15.068;2022-12-19T06:28:49;11.50;;;7.20;;
71838;SDS011;59687;37.520;15.068;2022-12-19T06:31:18;13.32;;;7.32;;
71838;SDS011;59687;37.520;15.068;2022-12-19T06:33:50;13.98;;;9.57;;
71838;SDS011;59687;37.520;15.068;2022-12-19T06:36:19;14.80;;;8.88;;
71838;SDS011;59687;37.520;15.068;2022-12-19T06:38:47;16.75;;;10.65;;
71838;SDS011;59687;37.520;15.068;2022-12-19T06:41:16;15.70;;;8.80;;
71838;SDS011;59687;37.520;15.068;2022-12-19T06:44:04;16.88;;;9.25;;
71838;SDS011;59687;37.520;15.068;2022-12-19T06:46:32;17.15;;;10.80;;
71838;SDS011;59687;37.520;15.068;2022-12-19T06:49:00;16.42;;;9.38;;
71838;SDS011;59687;37.520;15.068;2022-12-19T06:51:27;15.20;;;10.32;;
71838;SDS011;59687;37.520;15.068;2022-12-19T06:53:54;17.77;;;9.53;;
71838;SDS011;59687;37.520;15.068;2022-12-19T06:56:21;18.05;;;11.35;;
71838;SDS011;59687;37.520;15.068;2022-12-19T06:58:50;21.10;;;11.90;;
71838;SDS011;59687;37.520;15.068;2022-12-19T07:01:24;16.30;;;9.82;;
71838;SDS011;59687;37.520;15.068;2022-12-19T07:04:09;17.08;;;9.70;;
71838;SDS011;59687;37.520;15.068;2022-12-19T07:06:43;15.27;;;9.70;;
71838;SDS011;59687;37.520;15.068;2022-12-19T07:09:14;15.80;;;8.95;;
71838;SDS011;59687;37.520;15.068;2022-12-19T07:11:41;14.75;;;7.85;;
71838;SDS011;59687;37.520;15.068;2022-12-19T07:14:08;12.23;;;7.30;;
71838;SDS011;59687;37.520;15.068;2022-12-19T07:16:34;11.13;;;6.70;;
71838;SDS011;59687;37.520;15.068;2022-12-19T07:19:03;11.90;;;6.70;;
71838;SDS011;59687;37.520;15.068;2022-12-19T07:21:31;10.32;;;6.40;;
71838;SDS011;59687;37.520;15.068;2022-12-19T07:23:59;15.65;;;6.00;;
71838;SDS011;59687;37.520;15.068;2022-12-19T07:26:26;11.55;;;5.32;;
71838;SDS011;59687;37.520;15.068;2022-12-19T07:28:54;11.02;;;5.40;;
71838;SDS011;59687;37.520;15.068;2022-12-19T07:31:21;10.67;;;6.13;;
71838;SDS011;59687;37.520;15.068;2022-12-19T07:33:48;9.23;;;5.03;;
71838;SDS011;59687;37.520;15.068;2022-12-19T07:36:15;9.65;;;4.70;;
71838;SDS011;59687;37.520;15.068;2022-12-19T07:38:43;11.90;;;5.63;;
71838;SDS011;59687;37.520;15.068;2022-12-19T07:41:10;11.48;;;5.90;;
71838;SDS011;59687;37.520;15.068;2022-12-19T07:43:37;11.23;;;5.80;;
71838;SDS011;59687;37.520;15.068;2022-12-19T07:46:05;14.38;;;7.95;;
71838;SDS011;59687;37.520;15.068;2022-12-19T07:48:33;14.73;;;7.32;;
71838;SDS011;59687;37.520;15.068;2022-12-19T07:51:00;11.27;;;6.68;;
71838;SDS011;59687;37.520;15.068;2022-12-19T07:53:34;12.93;;;7.32;;
71838;SDS011;59687;37.520;15.068;2022-12-19T07:56:00;13.70;;;8.63;;
71838;SDS011;59687;37.520;15.068;2022-12-19T07:58:28;17.35;;;12.07;;
71838;SDS011;59687;37.520;15.068;2022-12-19T08:00:57;18.95;;;11.98;;
71838;SDS011;59687;37.520;15.068;2022-12-19T08:03:26;14.02;;;8.52;;
71838;SDS011;59687;37.520;15.068;2022-12-19T08:05:59;10.80;;;7.28;;
71838;SDS011;59687;37.520;15.068;2022-12-19T08:08:27;13.50;;;8.00;;
71838;SDS011;59687;37.520;15.068;2022-12-19T08:11:04;12.18;;;5.75;;
71838;SDS011;59687;37.520;15.068;2022-12-19T08:13:43;12.25;;;5.82;;
71838;SDS011;59687;37.520;15.068;2022-12-19T08:16:13;10.35;;;5.32;;
71838;SDS011;59687;37.520;15.068;2022-12-19T08:18:40;10.45;;;5.85;;
71838;SDS011;59687;37.520;15.068;2022-12-19T08:21:08;13.00;;;7.97;;
71838;SDS011;59687;37.520;15.068;2022-12-19T08:23:35;9.73;;;5.25;;
71838;SDS011;59687;37.520;15.068;2022-12-19T08:26:05;13.27;;;5.32;;
71838;SDS011;59687;37.520;15.068;2022-12-19T08:28:34;11.98;;;5.70;;
71838;SDS011;59687;37.520;15.068;2022-12-19T08:31:09;14.93;;;6.10;;
71838;SDS011;59687;37.520;15.068;2022-12-19T08:33:40;11.50;;;7.30;;
71838;SDS011;59687;37.520;15.068;2022-12-19T08:36:09;15.30;;;8.25;;
71838;SDS011;59687;37.520;15.068;2022-12-19T08:38:39;15.18;;;8.88;;
71838;SDS011;59687;37.520;15.068;2022-12-19T08:41:07;15.77;;;8.70;;
71838;SDS011;59687;37.520;15.068;2022-12-19T08:43:34;11.38;;;6.95;;
71838;SDS011;59687;37.520;15.068;2022-12-19T08:46:01;15.13;;;6.70;;
71838;SDS011;59687;37.520;15.068;2022-12-19T08:48:28;10.80;;;5.38;;
71838;SDS011;59687;37.520;15.068;2022-12-19T08:50:58;10.68;;;5.32;;
71838;SDS011;59687;37.520;15.068;2022-12-19T08:53:28;8.77;;;4.38;;
71838;SDS011;59687;37.520;15.068;2022-12-19T08:55:58;9.38;;;5.10;;
71838;SDS011;59687;37.520;15.068;2022-12-19T08:58:28;8.87;;;4.60;;
71838;SDS011;59687;37.520;15.068;2022-12-19T09:00:59;9.75;;;4.60;;
71838;SDS011;59687;37.520;15.068;2022-12-19T09:03:31;8.30;;;4.30;;
71838;SDS011;59687;37.520;15.068;2022-12-19T09:06:01;10.20;;;4.63;;
71838;SDS011;59687;37.520;15.068;2022-12-19T09:08:33;8.52;;;3.53;;
71838;SDS011;59687;37.520;15.068;2022-12-19T09:11:08;8.03;;;3.13;;
71838;SDS011;59687;37.520;15.068;2022-12-19T09:13:38;10.63;;;3.70;;
71838;SDS011;59687;37.520;15.068;2022-12-19T09:16:08;7.30;;;3.00;;
71838;SDS011;59687;37.520;15.068;2022-12-19T09:18:47;7.47;;;3.10;;
71838;SDS011;59687;37.520;15.068;2022-12-19T09:21:19;8.52;;;2.88;;
71838;SDS011;59687;37.520;15.068;2022-12-19T09:23:48;8.33;;;2.30;;
71838;SDS011;59687;37.520;15.068;2022-12-19T09:26:17;7.07;;;2.10;;
71838;SDS011;59687;37.520;15.068;2022-12-19T09:28:54;9.15;;;2.58;;
71838;SDS011;59687;37.520;15.068;2022-12-19T09:31:22;6.78;;;2.65;;
71838;SDS011;59687;37.520;15.068;2022-12-19T09:33:51;6.75;;;2.33;;
71838;SDS011;59687;37.520;15.068;2022-12-19T09:36:20;6.43;;;2.67;;
71838;SDS011;59687;37.520;15.068;2022-12-19T09:38:49;5.47;;;2.88;;
71838;SDS011;59687;37.520;15.068;2022-12-19T09:41:22;7.47;;;2.70;;
71838;SDS011;59687;37.520;15.068;2022-12-19T09:44:17;7.72;;;2.83;;
71838;SDS011;59687;37.520;15.068;2022-12-19T09:49:56;7.17;;;2.93;;
71838;SDS011;59687;37.520;15.068;2022-12-19T09:52:34;8.07;;;2.65;;
71838;SDS011;59687;37.520;15.068;2022-12-19T10:00:42;7.38;;;2.90;;
71838;SDS011;59687;37.520;15.068;2022-12-19T10:03:26;7.33;;;2.77;;
71838;SDS011;59687;37.520;15.068;2022-12-19T10:06:05;8.57;;;3.15;;
71838;SDS011;59687;37.520;15.068;2022-12-19T10:08:42;7.40;;;2.25;;
71838;SDS011;59687;37.520;15.068;2022-12-19T10:20:10;7.55;;;3.08;;
71838;SDS011;59687;37.520;15.068;2022-12-19T10:22:44;7.80;;;3.10;;
71838;SDS011;59687;37.520;15.068;2022-12-19T10:26:00;8.75;;;3.28;;
71838;SDS011;59687;37.520;15.068;2022-12-19T10:31:26;8.60;;;3.57;;
71838;SDS011;59687;37.520;15.068;2022-12-19T10:36:41;7.18;;;3.08;;
71838;SDS011;59687;37.520;15.068;2022-12-19T10:39:34;8.35;;;2.92;;
71838;SDS011;59687;37.520;15.068;2022-12-19T10:42:15;9.50;;;3.17;;
71838;SDS011;59687;37.520;15.068;2022-12-19T10:45:00;7.13;;;2.83;;
71838;SDS011;59687;37.520;15.068;2022-12-19T10:47:35;8.95;;;3.55;;
71838;SDS011;59687;37.520;15.068;2022-12-19T10:50:02;7.72;;;3.45;;
71838;SDS011;59687;37.520;15.068;2022-12-19T10:52:39;8.90;;;3.20;;
71838;SDS011;59687;37.520;15.068;2022-12-19T10:55:29;6.82;;;3.08;;
71838;SDS011;59687;37.520;15.068;2022-12-19T10:57:59;8.07;;;2.93;;
71838;SDS011;59687;37.520;15.068;2022-12-19T11:00:45;7.97;;;3.22;;
71838;SDS011;59687;37.520;15.068;2022-12-19T11:03:31;12.07;;;3.42;;
71838;SDS011;59687;37.520;15.068;2022-12-19T11:06:00;8.10;;;3.08;;
71838;SDS011;59687;37.520;15.068;2022-12-19T11:08:33;7.07;;;3.00;;
71838;SDS011;59687;37.520;15.068;2022-12-19T11:11:11;8.97;;;3.63;;
71838;SDS011;59687;37.520;15.068;2022-12-19T11:13:40;8.23;;;3.33;;
71838;SDS011;59687;37.520;15.068;2022-12-19T11:16:11;7.30;;;2.90;;
71838;SDS011;59687;37.520;15.068;2022-12-19T11:18:46;8.70;;;2.90;;
71838;SDS011;59687;37.520;15.068;2022-12-19T11:21:18;9.77;;;3.05;;
71838;SDS011;59687;37.520;15.068;2022-12-19T11:29:54;6.90;;;2.97;;
71838;SDS011;59687;37.520;15.068;2022-12-19T11:37:53;6.33;;;2.50;;
71838;SDS011;59687;37.520;15.068;2022-12-19T11:40:39;5.20;;;2.50;;
71838;SDS011;59687;37.520;15.068;2022-12-19T11:49:01;7.90;;;3.47;;
71838;SDS011;59687;37.520;15.068;2022-12-19T11:54:30;9.70;;;2.83;;
71838;SDS011;59687;37.520;15.068;2022-12-19T11:57:08;6.80;;;2.50;;
71838;SDS011;59687;37.520;15.068;2022-12-19T11:59:39;5.45;;;2.30;;
71838;SDS011;59687;37.520;15.068;2022-12-19T12:02:14;6.15;;;2.35;;
71838;SDS011;59687;37.520;15.068;2022-12-19T12:07:56;10.15;;;2.83;;
71838;SDS011;59687;37.520;15.068;2022-12-19T12:10:36;6.03;;;2.65;;
71838;SDS011;59687;37.520;15.068;2022-12-19T12:16:14;6.60;;;2.75;;
71838;SDS011;59687;37.520;15.068;2022-12-19T12:21:33;7.13;;;2.70;;
71838;SDS011;59687;37.520;15.068;2022-12-19T12:27:03;6.97;;;2.95;;
71838;SDS011;59687;37.520;15.068;2022-12-19T12:29:53;6.90;;;2.47;;
71838;SDS011;59687;37.520;15.068;2022-12-19T12:43:51;6.10;;;2.25;;
71838;SDS011;59687;37.520;15.068;2022-12-19T12:46:48;8.47;;;2.47;;
71838;SDS011;59687;37.520;15.068;2022-12-19T12:52:02;6.85;;;2.13;;
71838;SDS011;59687;37.520;15.068;2022-12-19T12:54:33;8.20;;;2.85;;
71838;SDS011;59687;37.520;15.068;2022-12-19T12:57:04;7.25;;;2.97;;
71838;SDS011;59687;37.520;15.068;2022-12-19T12:59:32;6.83;;;2.50;;
71838;SDS011;59687;37.520;15.068;2022-12-19T13:02:06;8.07;;;2.50;;
71838;SDS011;59687;37.520;15.068;2022-12-19T13:04:54;7.65;;;2.30;;
71838;SDS011;59687;37.520;15.068;2022-12-19T13:07:33;6.70;;;2.28;;
71838;SDS011;59687;37.520;15.068;2022-12-19T13:15:33;7.22;;;2.40;;
71838;SDS011;59687;37.520;15.068;2022-12-19T13:18:08;8.23;;;3.58;;
71838;SDS011;59687;37.520;15.068;2022-12-19T13:20:58;5.40;;;1.90;;
71838;SDS011;59687;37.520;15.068;2022-12-19T13:26:02;6.73;;;2.40;;
71838;SDS011;59687;37.520;15.068;2022-12-19T13:28:38;6.18;;;2.03;;
71838;SDS011;59687;37.520;15.068;2022-12-19T13:34:15;6.60;;;1.92;;
71838;SDS011;59687;37.520;15.068;2022-12-19T13:45:00;7.40;;;2.30;;
71838;SDS011;59687;37.520;15.068;2022-12-19T13:47:37;7.93;;;2.08;;
71838;SDS011;59687;37.520;15.068;2022-12-19T13:50:15;7.97;;;2.03;;
71838;SDS011;59687;37.520;15.068;2022-12-19T13:52:53;4.90;;;2.10;;
71838;SDS011;59687;37.520;15.068;2022-12-19T13:55:27;8.20;;;3.03;;
71838;SDS011;59687;37.520;15.068;2022-12-19T13:57:55;7.32;;;2.03;;
71838;SDS011;59687;37.520;15.068;2022-12-19T14:00:30;7.28;;;2.15;;
71838;SDS011;59687;37.520;15.068;2022-12-19T14:03:02;6.30;;;2.35;;
71838;SDS011;59687;37.520;15.068;2022-12-19T14:05:40;8.97;;;3.43;;
71838;SDS011;59687;37.520;15.068;2022-12-19T14:08:08;7.53;;;2.33;;
71838;SDS011;59687;37.520;15.068;2022-12-19T14:10:48;6.45;;;2.13;;
71838;SDS011;59687;37.520;15.068;2022-12-19T14:13:18;8.05;;;2.28;;
71838;SDS011;59687;37.520;15.068;2022-12-19T14:16:13;9.27;;;2.30;;
71838;SDS011;59687;37.520;15.068;2022-12-19T14:18:46;7.30;;;2.13;;
71838;SDS011;59687;37.520;15.068;2022-12-19T14:21:16;7.03;;;2.15;;
71838;SDS011;59687;37.520;15.068;2022-12-19T14:23:48;5.45;;;2.10;;
71838;SDS011;59687;37.520;15.068;2022-12-19T14:26:29;5.78;;;2.05;;
71838;SDS011;59687;37.520;15.068;2022-12-19T14:28:59;8.63;;;2.45;;
71838;SDS011;59687;37.520;15.068;2022-12-19T14:31:32;6.97;;;3.80;;
71838;SDS011;59687;37.520;15.068;2022-12-19T14:34:06;6.43;;;2.50;;
71838;SDS011;59687;37.520;15.068;2022-12-19T14:37:30;5.00;;;2.00;;
71838;SDS011;59687;37.520;15.068;2022-12-19T14:39:59;8.73;;;3.00;;
71838;SDS011;59687;37.520;15.068;2022-12-19T14:42:34;9.80;;;2.55;;
71838;SDS011;59687;37.520;15.068;2022-12-19T14:46:08;7.80;;;3.20;;
71838;SDS011;59687;37.520;15.068;2022-12-19T14:51:35;5.70;;;2.30;;
71838;SDS011;59687;37.520;15.068;2022-12-19T14:54:16;9.43;;;3.38;;
71838;SDS011;59687;37.520;15.068;2022-12-19T14:57:14;8.05;;;3.05;;
71838;SDS011;59687;37.520;15.068;2022-12-19T14:59:45;6.20;;;2.67;;
71838;SDS011;59687;37.520;15.068;2022-12-19T15:02:21;7.65;;;3.03;;
71838;SDS011;59687;37.520;15.068;2022-12-19T15:05:01;7.88;;;3.40;;
71838;SDS011;59687;37.520;15.068;2022-12-19T15:07:34;8.52;;;2.60;;
71838;SDS011;59687;37.520;15.068;2022-12-19T15:21:03;10.95;;;8.00;;
71838;SDS011;59687;37.520;15.068;2022-12-19T15:23:38;7.30;;;3.10;;
71838;SDS011;59687;37.520;15.068;2022-12-19T15:26:09;8.37;;;2.93;;
71838;SDS011;59687;37.520;15.068;2022-12-19T15:28:46;7.32;;;3.25;;
71838;SDS011;59687;37.520;15.068;2022-12-19T15:31:36;12.10;;;5.50;;
71838;SDS011;59687;37.520;15.068;2022-12-19T15:34:16;8.13;;;3.05;;
71838;SDS011;59687;37.520;15.068;2022-12-19T15:37:00;8.38;;;3.67;;
71838;SDS011;59687;37.520;15.068;2022-12-19T15:39:29;7.77;;;2.97;;
71838;SDS011;59687;37.520;15.068;2022-12-19T15:41:58;9.77;;;3.10;;
71838;SDS011;59687;37.520;15.068;2022-12-19T15:44:29;9.27;;;3.00;;
71838;SDS011;59687;37.520;15.068;2022-12-19T15:47:14;11.23;;;3.72;;
71838;SDS011;59687;37.520;15.068;2022-12-19T15:49:48;6.93;;;2.60;;
71838;SDS011;59687;37.520;15.068;2022-12-19T15:52:15;12.40;;;4.50;;
71838;SDS011;59687;37.520;15.068;2022-12-19T15:54:50;8.98;;;3.88;;
71838;SDS011;59687;37.520;15.068;2022-12-19T15:57:18;8.00;;;3.38;;
71838;SDS011;59687;37.520;15.068;2022-12-19T15:59:56;9.68;;;3.25;;
71838;SDS011;59687;37.520;15.068;2022-12-19T16:02:30;9.95;;;3.42;;
71838;SDS011;59687;37.520;15.068;2022-12-19T16:05:19;7.87;;;2.93;;
71838;SDS011;59687;37.520;15.068;2022-12-19T16:07:50;8.82;;;3.13;;
71838;SDS011;59687;37.520;15.068;2022-12-19T16:10:27;12.00;;;4.60;;
71838;SDS011;59687;37.520;15.068;2022-12-19T16:13:00;11.38;;;3.55;;
71838;SDS011;59687;37.520;15.068;2022-12-19T16:15:30;10.90;;;4.03;;
71838;SDS011;59687;37.520;15.068;2022-12-19T16:18:14;9.67;;;4.10;;
71838;SDS011;59687;37.520;15.068;2022-12-19T16:20:46;9.80;;;3.78;;
71838;SDS011;59687;37.520;15.068;2022-12-19T16:23:14;8.50;;;4.40;;
71838;SDS011;59687;37.520;15.068;2022-12-19T16:25:46;10.88;;;4.53;;
71838;SDS011;59687;37.520;15.068;2022-12-19T16:28:27;13.25;;;5.00;;
71838;SDS011;59687;37.520;15.068;2022-12-19T16:30:57;12.13;;;5.40;;
71838;SDS011;59687;37.520;15.068;2022-12-19T16:33:26;12.90;;;5.15;;
71838;SDS011;59687;37.520;15.068;2022-12-19T16:36:20;11.73;;;6.18;;
71838;SDS011;59687;37.520;15.068;2022-12-19T16:38:47;9.48;;;5.50;;
71838;SDS011;59687;37.520;15.068;2022-12-19T16:41:22;13.10;;;5.57;;
71838;SDS011;59687;37.520;15.068;2022-12-19T16:44:24;16.40;;;5.73;;
71838;SDS011;59687;37.520;15.068;2022-12-19T16:46:51;12.05;;;6.13;;
71838;SDS011;59687;37.520;15.068;2022-12-19T16:49:21;12.25;;;5.75;;
71838;SDS011;59687;37.520;15.068;2022-12-19T16:51:50;10.63;;;5.75;;
71838;SDS011;59687;37.520;15.068;2022-12-19T16:54:27;18.75;;;6.50;;
71838;SDS011;59687;37.520;15.068;2022-12-19T16:56:57;13.83;;;6.40;;
71838;SDS011;59687;37.520;15.068;2022-12-19T16:59:34;17.83;;;6.28;;
71838;SDS011;59687;37.520;15.068;2022-12-19T17:05:16;11.18;;;6.10;;
71838;SDS011;59687;37.520;15.068;2022-12-19T17:10:45;14.37;;;6.60;;
71838;SDS011;59687;37.520;15.068;2022-12-19T17:13:15;17.50;;;7.22;;
71838;SDS011;59687;37.520;15.068;2022-12-19T17:15:48;15.82;;;8.60;;
71838;SDS011;59687;37.520;15.068;2022-12-19T17:18:28;21.88;;;9.70;;
71838;SDS011;59687;37.520;15.068;2022-12-19T17:21:19;17.25;;;8.60;;
71838;SDS011;59687;37.520;15.068;2022-12-19T17:23:48;23.03;;;9.67;;
71838;SDS011;59687;37.520;15.068;2022-12-19T17:26:20;23.50;;;9.80;;